sensor_id;sensor_type;location;lat;lon;timestamp;P1;durP1;ratioP1;P2;durP2;ratioP2
70605;SDS011;58173;52.500;5.494;2024-03-22T00:01:45;37.33;;;14.23;;
70605;SDS011;58173;52.500;5.494;2024-03-22T00:04:12;35.80;;;15.60;;
70605;SDS011;58173;52.500;5.494;2024-03-22T00:06:38;35.60;;;14.88;;
70605;SDS011;58173;52.500;5.494;2024-03-22T00:09:05;37.85;;;15.07;;
70605;SDS011;58173;52.500;5.494;2024-03-22T00:11:31;31.88;;;13.77;;
70605;SDS011;58173;52.500;5.494;2024-03-22T00:13:57;35.65;;;14.48;;
70605;SDS011;58173;52.500;5.494;2024-03-22T00:16:24;33.17;;;13.90;;
70605;SDS011;58173;52.500;5.494;2024-03-22T00:18:50;38.88;;;16.52;;
70605;SDS011;58173;52.500;5.494;2024-03-22T00:21:16;40.30;;;16.70;;
70605;SDS011;58173;52.500;5.494;2024-03-22T00:23:43;30.90;;;11.57;;
70605;SDS011;58173;52.500;5.494;2024-03-22T00:26:09;37.83;;;15.68;;
70605;SDS011;58173;52.500;5.494;2024-03-22T00:28:35;40.72;;;16.83;;
70605;SDS011;58173;52.500;5.494;2024-03-22T00:31:02;40.28;;;16.50;;
70605;SDS011;58173;52.500;5.494;2024-03-22T00:33:28;35.95;;;14.77;;
70605;SDS011;58173;52.500;5.494;2024-03-22T00:35:54;40.85;;;16.52;;
70605;SDS011;58173;52.500;5.494;2024-03-22T00:38:20;44.03;;;17.27;;
70605;SDS011;58173;52.500;5.494;2024-03-22T00:40:46;39.60;;;16.40;;
70605;SDS011;58173;52.500;5.494;2024-03-22T00:43:13;40.45;;;16.92;;
70605;SDS011;58173;52.500;5.494;2024-03-22T00:45:39;43.08;;;16.52;;
70605;SDS011;58173;52.500;5.494;2024-03-22T00:48:05;43.03;;;17.30;;
70605;SDS011;58173;52.500;5.494;2024-03-22T00:50:31;42.95;;;17.02;;
70605;SDS011;58173;52.500;5.494;2024-03-22T00:52:58;43.40;;;17.63;;
70605;SDS011;58173;52.500;5.494;2024-03-22T00:55:24;43.65;;;16.48;;
70605;SDS011;58173;52.500;5.494;2024-03-22T00:57:51;43.25;;;17.63;;
70605;SDS011;58173;52.500;5.494;2024-03-22T01:00:17;39.03;;;16.50;;
70605;SDS011;58173;52.500;5.494;2024-03-22T01:02:43;42.15;;;16.15;;
70605;SDS011;58173;52.500;5.494;2024-03-22T01:05:10;43.67;;;16.77;;
70605;SDS011;58173;52.500;5.494;2024-03-22T01:07:36;40.85;;;15.82;;
70605;SDS011;58173;52.500;5.494;2024-03-22T01:10:03;41.90;;;16.58;;
70605;SDS011;58173;52.500;5.494;2024-03-22T01:12:30;42.80;;;16.02;;
70605;SDS011;58173;52.500;5.494;2024-03-22T01:14:56;42.55;;;16.40;;
70605;SDS011;58173;52.500;5.494;2024-03-22T01:17:23;44.55;;;17.73;;
70605;SDS011;58173;52.500;5.494;2024-03-22T01:19:49;40.17;;;14.77;;
70605;SDS011;58173;52.500;5.494;2024-03-22T01:22:16;42.50;;;16.33;;
70605;SDS011;58173;52.500;5.494;2024-03-22T01:24:43;43.53;;;16.88;;
70605;SDS011;58173;52.500;5.494;2024-03-22T01:27:09;44.80;;;17.88;;
70605;SDS011;58173;52.500;5.494;2024-03-22T01:29:35;43.67;;;17.08;;
70605;SDS011;58173;52.500;5.494;2024-03-22T01:32:02;47.30;;;18.48;;
70605;SDS011;58173;52.500;5.494;2024-03-22T01:34:28;30.75;;;12.05;;
70605;SDS011;58173;52.500;5.494;2024-03-22T01:36:54;42.13;;;15.38;;
70605;SDS011;58173;52.500;5.494;2024-03-22T01:39:21;43.85;;;16.83;;
70605;SDS011;58173;52.500;5.494;2024-03-22T01:41:48;42.47;;;16.02;;
70605;SDS011;58173;52.500;5.494;2024-03-22T01:44:14;43.58;;;17.63;;
70605;SDS011;58173;52.500;5.494;2024-03-22T01:46:41;43.58;;;16.60;;
70605;SDS011;58173;52.500;5.494;2024-03-22T01:49:14;42.83;;;15.93;;
70605;SDS011;58173;52.500;5.494;2024-03-22T01:51:41;41.05;;;15.90;;
70605;SDS011;58173;52.500;5.494;2024-03-22T01:54:08;45.17;;;16.67;;
70605;SDS011;58173;52.500;5.494;2024-03-22T01:56:36;51.58;;;18.65;;
70605;SDS011;58173;52.500;5.494;2024-03-22T01:59:03;37.80;;;14.20;;
70605;SDS011;58173;52.500;5.494;2024-03-22T02:01:30;44.85;;;15.32;;
70605;SDS011;58173;52.500;5.494;2024-03-22T02:03:57;38.83;;;15.18;;
70605;SDS011;58173;52.500;5.494;2024-03-22T02:06:23;41.08;;;15.13;;
70605;SDS011;58173;52.500;5.494;2024-03-22T02:08:49;43.60;;;16.17;;
70605;SDS011;58173;52.500;5.494;2024-03-22T02:11:15;46.90;;;16.70;;
70605;SDS011;58173;52.500;5.494;2024-03-22T02:13:42;36.47;;;13.70;;
70605;SDS011;58173;52.500;5.494;2024-03-22T02:16:08;44.28;;;16.60;;
70605;SDS011;58173;52.500;5.494;2024-03-22T02:18:34;40.33;;;15.30;;
70605;SDS011;58173;52.500;5.494;2024-03-22T02:21:01;44.85;;;16.27;;
70605;SDS011;58173;52.500;5.494;2024-03-22T02:23:34;44.72;;;16.60;;
70605;SDS011;58173;52.500;5.494;2024-03-22T02:26:00;37.38;;;13.85;;
70605;SDS011;58173;52.500;5.494;2024-03-22T02:28:27;45.10;;;16.25;;
70605;SDS011;58173;52.500;5.494;2024-03-22T02:30:54;40.88;;;15.25;;
70605;SDS011;58173;52.500;5.494;2024-03-22T02:33:20;45.17;;;17.13;;
70605;SDS011;58173;52.500;5.494;2024-03-22T02:35:47;42.80;;;15.85;;
70605;SDS011;58173;52.500;5.494;2024-03-22T02:38:13;45.55;;;15.88;;
70605;SDS011;58173;52.500;5.494;2024-03-22T02:40:40;48.17;;;16.98;;
70605;SDS011;58173;52.500;5.494;2024-03-22T02:43:06;47.85;;;15.25;;
70605;SDS011;58173;52.500;5.494;2024-03-22T02:45:32;43.22;;;15.73;;
70605;SDS011;58173;52.500;5.494;2024-03-22T02:47:59;47.47;;;15.82;;
70605;SDS011;58173;52.500;5.494;2024-03-22T02:50:25;43.65;;;16.17;;
70605;SDS011;58173;52.500;5.494;2024-03-22T02:52:51;44.15;;;16.38;;
70605;SDS011;58173;52.500;5.494;2024-03-22T02:55:17;40.00;;;14.57;;
70605;SDS011;58173;52.500;5.494;2024-03-22T02:57:43;50.67;;;18.13;;
70605;SDS011;58173;52.500;5.494;2024-03-22T03:00:10;47.30;;;18.35;;
70605;SDS011;58173;52.500;5.494;2024-03-22T03:02:36;48.00;;;16.10;;
70605;SDS011;58173;52.500;5.494;2024-03-22T03:05:02;39.78;;;15.45;;
70605;SDS011;58173;52.500;5.494;2024-03-22T03:07:29;49.40;;;15.98;;
70605;SDS011;58173;52.500;5.494;2024-03-22T03:09:55;50.30;;;17.48;;
70605;SDS011;58173;52.500;5.494;2024-03-22T03:12:21;51.45;;;16.92;;
70605;SDS011;58173;52.500;5.494;2024-03-22T03:14:47;45.90;;;15.85;;
70605;SDS011;58173;52.500;5.494;2024-03-22T03:17:14;46.92;;;14.73;;
70605;SDS011;58173;52.500;5.494;2024-03-22T03:19:40;36.70;;;12.73;;
70605;SDS011;58173;52.500;5.494;2024-03-22T03:22:06;33.45;;;12.10;;
70605;SDS011;58173;52.500;5.494;2024-03-22T03:24:32;43.30;;;16.33;;
70605;SDS011;58173;52.500;5.494;2024-03-22T03:26:58;32.45;;;10.77;;
70605;SDS011;58173;52.500;5.494;2024-03-22T03:29:25;43.92;;;15.80;;
70605;SDS011;58173;52.500;5.494;2024-03-22T03:31:51;43.80;;;15.77;;
70605;SDS011;58173;52.500;5.494;2024-03-22T03:34:17;40.58;;;14.82;;
70605;SDS011;58173;52.500;5.494;2024-03-22T03:36:45;45.70;;;16.40;;
70605;SDS011;58173;52.500;5.494;2024-03-22T03:39:11;32.10;;;12.02;;
70605;SDS011;58173;52.500;5.494;2024-03-22T03:41:37;47.08;;;15.05;;
70605;SDS011;58173;52.500;5.494;2024-03-22T03:44:03;38.03;;;12.52;;
70605;SDS011;58173;52.500;5.494;2024-03-22T03:46:30;44.35;;;15.38;;
70605;SDS011;58173;52.500;5.494;2024-03-22T03:48:56;32.05;;;11.32;;
70605;SDS011;58173;52.500;5.494;2024-03-22T03:51:22;37.28;;;14.45;;
70605;SDS011;58173;52.500;5.494;2024-03-22T03:53:49;39.72;;;14.80;;
70605;SDS011;58173;52.500;5.494;2024-03-22T03:56:15;39.30;;;12.60;;
70605;SDS011;58173;52.500;5.494;2024-03-22T03:58:41;44.90;;;16.67;;
70605;SDS011;58173;52.500;5.494;2024-03-22T04:01:08;43.47;;;15.23;;
70605;SDS011;58173;52.500;5.494;2024-03-22T04:03:34;31.00;;;11.75;;
70605;SDS011;58173;52.500;5.494;2024-03-22T04:06:01;44.00;;;16.10;;
70605;SDS011;58173;52.500;5.494;2024-03-22T04:08:29;27.77;;;9.07;;
70605;SDS011;58173;52.500;5.494;2024-03-22T04:13:25;35.38;;;11.98;;
70605;SDS011;58173;52.500;5.494;2024-03-22T04:15:51;39.13;;;14.80;;
70605;SDS011;58173;52.500;5.494;2024-03-22T04:18:18;39.00;;;13.77;;
70605;SDS011;58173;52.500;5.494;2024-03-22T04:20:54;45.00;;;14.95;;
70605;SDS011;58173;52.500;5.494;2024-03-22T04:23:21;35.03;;;12.57;;
70605;SDS011;58173;52.500;5.494;2024-03-22T04:28:19;40.80;;;14.50;;
70605;SDS011;58173;52.500;5.494;2024-03-22T04:30:59;40.40;;;15.02;;
70605;SDS011;58173;52.500;5.494;2024-03-22T04:33:25;40.75;;;14.98;;
70605;SDS011;58173;52.500;5.494;2024-03-22T04:35:52;41.80;;;15.10;;
70605;SDS011;58173;52.500;5.494;2024-03-22T04:38:19;36.20;;;14.20;;
70605;SDS011;58173;52.500;5.494;2024-03-22T04:40:45;27.40;;;10.45;;
70605;SDS011;58173;52.500;5.494;2024-03-22T04:43:11;27.80;;;12.27;;
70605;SDS011;58173;52.500;5.494;2024-03-22T04:45:38;35.22;;;13.63;;
70605;SDS011;58173;52.500;5.494;2024-03-22T04:48:04;31.20;;;11.23;;
70605;SDS011;58173;52.500;5.494;2024-03-22T04:50:31;35.47;;;12.73;;
70605;SDS011;58173;52.500;5.494;2024-03-22T04:52:57;32.15;;;12.75;;
70605;SDS011;58173;52.500;5.494;2024-03-22T04:55:23;35.25;;;13.20;;
70605;SDS011;58173;52.500;5.494;2024-03-22T04:57:51;30.00;;;10.63;;
70605;SDS011;58173;52.500;5.494;2024-03-22T05:00:18;30.05;;;10.43;;
70605;SDS011;58173;52.500;5.494;2024-03-22T05:02:44;31.92;;;11.43;;
70605;SDS011;58173;52.500;5.494;2024-03-22T05:05:11;28.38;;;10.00;;
70605;SDS011;58173;52.500;5.494;2024-03-22T05:07:37;30.30;;;10.40;;
70605;SDS011;58173;52.500;5.494;2024-03-22T05:10:04;30.40;;;10.90;;
70605;SDS011;58173;52.500;5.494;2024-03-22T05:12:30;30.58;;;10.65;;
70605;SDS011;58173;52.500;5.494;2024-03-22T05:14:57;23.85;;;9.27;;
70605;SDS011;58173;52.500;5.494;2024-03-22T05:17:23;26.15;;;9.45;;
70605;SDS011;58173;52.500;5.494;2024-03-22T05:19:49;29.48;;;10.07;;
70605;SDS011;58173;52.500;5.494;2024-03-22T05:22:15;26.15;;;8.48;;
70605;SDS011;58173;52.500;5.494;2024-03-22T05:24:42;32.80;;;11.52;;
70605;SDS011;58173;52.500;5.494;2024-03-22T05:27:08;29.05;;;11.38;;
70605;SDS011;58173;52.500;5.494;2024-03-22T05:29:34;32.83;;;11.25;;
70605;SDS011;58173;52.500;5.494;2024-03-22T05:32:00;27.27;;;10.45;;
70605;SDS011;58173;52.500;5.494;2024-03-22T05:34:29;29.73;;;10.50;;
70605;SDS011;58173;52.500;5.494;2024-03-22T05:36:55;25.90;;;10.82;;
70605;SDS011;58173;52.500;5.494;2024-03-22T05:39:21;25.67;;;9.15;;
70605;SDS011;58173;52.500;5.494;2024-03-22T05:41:47;24.05;;;10.27;;
70605;SDS011;58173;52.500;5.494;2024-03-22T05:44:14;28.05;;;9.07;;
70605;SDS011;58173;52.500;5.494;2024-03-22T05:46:40;29.80;;;11.00;;
70605;SDS011;58173;52.500;5.494;2024-03-22T05:49:06;24.05;;;8.68;;
70605;SDS011;58173;52.500;5.494;2024-03-22T05:51:33;17.60;;;7.32;;
70605;SDS011;58173;52.500;5.494;2024-03-22T05:53:59;21.85;;;8.38;;
70605;SDS011;58173;52.500;5.494;2024-03-22T05:56:25;22.50;;;9.18;;
70605;SDS011;58173;52.500;5.494;2024-03-22T05:58:51;25.70;;;10.20;;
70605;SDS011;58173;52.500;5.494;2024-03-22T06:01:18;24.38;;;8.90;;
70605;SDS011;58173;52.500;5.494;2024-03-22T06:03:44;27.75;;;10.45;;
70605;SDS011;58173;52.500;5.494;2024-03-22T06:06:10;29.75;;;10.77;;
70605;SDS011;58173;52.500;5.494;2024-03-22T06:08:37;22.38;;;7.20;;
70605;SDS011;58173;52.500;5.494;2024-03-22T06:11:06;23.10;;;8.07;;
70605;SDS011;58173;52.500;5.494;2024-03-22T06:13:33;28.92;;;10.13;;
70605;SDS011;58173;52.500;5.494;2024-03-22T06:16:00;22.25;;;8.23;;
70605;SDS011;58173;52.500;5.494;2024-03-22T06:18:26;25.10;;;9.30;;
70605;SDS011;58173;52.500;5.494;2024-03-22T06:20:52;24.15;;;8.80;;
70605;SDS011;58173;52.500;5.494;2024-03-22T06:23:20;27.70;;;8.75;;
70605;SDS011;58173;52.500;5.494;2024-03-22T06:25:53;22.00;;;8.00;;
70605;SDS011;58173;52.500;5.494;2024-03-22T06:28:20;15.25;;;6.28;;
70605;SDS011;58173;52.500;5.494;2024-03-22T06:30:47;20.35;;;6.85;;
70605;SDS011;58173;52.500;5.494;2024-03-22T06:33:13;24.13;;;7.93;;
70605;SDS011;58173;52.500;5.494;2024-03-22T06:35:40;15.52;;;4.60;;
70605;SDS011;58173;52.500;5.494;2024-03-22T06:38:07;19.40;;;5.80;;
70605;SDS011;58173;52.500;5.494;2024-03-22T06:40:33;23.27;;;7.25;;
70605;SDS011;58173;52.500;5.494;2024-03-22T06:42:59;24.00;;;6.45;;
70605;SDS011;58173;52.500;5.494;2024-03-22T06:45:26;16.02;;;5.25;;
70605;SDS011;58173;52.500;5.494;2024-03-22T06:47:52;20.63;;;6.47;;
70605;SDS011;58173;52.500;5.494;2024-03-22T06:50:18;16.95;;;4.45;;
70605;SDS011;58173;52.500;5.494;2024-03-22T06:52:51;14.30;;;4.82;;
70605;SDS011;58173;52.500;5.494;2024-03-22T06:55:21;14.10;;;4.68;;
70605;SDS011;58173;52.500;5.494;2024-03-22T06:57:48;14.68;;;4.13;;
70605;SDS011;58173;52.500;5.494;2024-03-22T07:00:15;20.98;;;5.60;;
70605;SDS011;58173;52.500;5.494;2024-03-22T07:02:41;13.35;;;4.28;;
70605;SDS011;58173;52.500;5.494;2024-03-22T07:05:08;18.23;;;5.93;;
70605;SDS011;58173;52.500;5.494;2024-03-22T07:07:37;19.92;;;5.28;;
70605;SDS011;58173;52.500;5.494;2024-03-22T07:10:04;17.48;;;4.90;;
70605;SDS011;58173;52.500;5.494;2024-03-22T07:12:33;14.35;;;4.30;;
70605;SDS011;58173;52.500;5.494;2024-03-22T07:15:00;9.82;;;3.13;;
70605;SDS011;58173;52.500;5.494;2024-03-22T07:17:26;13.07;;;3.97;;
70605;SDS011;58173;52.500;5.494;2024-03-22T07:19:53;16.73;;;4.28;;
70605;SDS011;58173;52.500;5.494;2024-03-22T07:22:19;12.43;;;3.75;;
70605;SDS011;58173;52.500;5.494;2024-03-22T07:24:46;13.18;;;4.05;;
70605;SDS011;58173;52.500;5.494;2024-03-22T07:27:12;8.00;;;3.13;;
70605;SDS011;58173;52.500;5.494;2024-03-22T07:29:42;13.27;;;4.03;;
70605;SDS011;58173;52.500;5.494;2024-03-22T07:32:08;18.25;;;4.82;;
70605;SDS011;58173;52.500;5.494;2024-03-22T07:34:34;16.17;;;3.97;;
70605;SDS011;58173;52.500;5.494;2024-03-22T07:37:00;13.40;;;4.30;;
70605;SDS011;58173;52.500;5.494;2024-03-22T07:39:27;13.85;;;4.07;;
70605;SDS011;58173;52.500;5.494;2024-03-22T07:41:53;12.73;;;3.15;;
70605;SDS011;58173;52.500;5.494;2024-03-22T07:44:19;10.38;;;4.00;;
70605;SDS011;58173;52.500;5.494;2024-03-22T07:46:45;13.20;;;4.20;;
70605;SDS011;58173;52.500;5.494;2024-03-22T07:49:12;13.30;;;4.38;;
70605;SDS011;58173;52.500;5.494;2024-03-22T07:51:38;9.90;;;3.33;;
70605;SDS011;58173;52.500;5.494;2024-03-22T07:54:05;10.88;;;4.25;;
70605;SDS011;58173;52.500;5.494;2024-03-22T07:56:31;16.17;;;4.15;;
70605;SDS011;58173;52.500;5.494;2024-03-22T07:58:57;10.48;;;3.38;;
70605;SDS011;58173;52.500;5.494;2024-03-22T08:01:24;14.20;;;4.63;;
70605;SDS011;58173;52.500;5.494;2024-03-22T08:03:51;11.68;;;3.35;;
70605;SDS011;58173;52.500;5.494;2024-03-22T08:06:17;18.67;;;5.78;;
70605;SDS011;58173;52.500;5.494;2024-03-22T08:08:44;11.45;;;4.13;;
70605;SDS011;58173;52.500;5.494;2024-03-22T08:11:10;12.80;;;4.72;;
70605;SDS011;58173;52.500;5.494;2024-03-22T08:13:36;13.50;;;4.70;;
70605;SDS011;58173;52.500;5.494;2024-03-22T08:16:03;11.52;;;4.00;;
70605;SDS011;58173;52.500;5.494;2024-03-22T08:18:31;13.32;;;5.03;;
70605;SDS011;58173;52.500;5.494;2024-03-22T08:20:58;14.40;;;4.50;;
70605;SDS011;58173;52.500;5.494;2024-03-22T08:23:24;17.55;;;5.07;;
70605;SDS011;58173;52.500;5.494;2024-03-22T08:25:51;12.93;;;5.10;;
70605;SDS011;58173;52.500;5.494;2024-03-22T08:28:17;13.80;;;4.78;;
70605;SDS011;58173;52.500;5.494;2024-03-22T08:30:43;22.42;;;6.45;;
70605;SDS011;58173;52.500;5.494;2024-03-22T08:33:10;19.75;;;6.72;;
70605;SDS011;58173;52.500;5.494;2024-03-22T08:35:39;14.88;;;5.18;;
70605;SDS011;58173;52.500;5.494;2024-03-22T08:38:05;17.05;;;5.28;;
70605;SDS011;58173;52.500;5.494;2024-03-22T08:40:40;15.10;;;4.90;;
70605;SDS011;58173;52.500;5.494;2024-03-22T08:43:06;13.25;;;4.82;;
70605;SDS011;58173;52.500;5.494;2024-03-22T08:45:33;14.43;;;5.65;;
70605;SDS011;58173;52.500;5.494;2024-03-22T08:47:59;19.63;;;6.38;;
70605;SDS011;58173;52.500;5.494;2024-03-22T08:50:25;12.00;;;4.30;;
70605;SDS011;58173;52.500;5.494;2024-03-22T08:52:51;14.82;;;5.28;;
70605;SDS011;58173;52.500;5.494;2024-03-22T08:55:18;14.43;;;5.22;;
70605;SDS011;58173;52.500;5.494;2024-03-22T08:57:44;18.10;;;5.93;;
70605;SDS011;58173;52.500;5.494;2024-03-22T09:00:10;16.27;;;5.28;;
70605;SDS011;58173;52.500;5.494;2024-03-22T09:02:37;16.65;;;7.22;;
70605;SDS011;58173;52.500;5.494;2024-03-22T09:05:04;11.02;;;4.28;;
70605;SDS011;58173;52.500;5.494;2024-03-22T09:07:30;22.02;;;8.93;;
70605;SDS011;58173;52.500;5.494;2024-03-22T09:09:56;18.70;;;6.78;;
70605;SDS011;58173;52.500;5.494;2024-03-22T09:12:23;24.10;;;9.75;;
70605;SDS011;58173;52.500;5.494;2024-03-22T09:14:49;13.73;;;5.32;;
70605;SDS011;58173;52.500;5.494;2024-03-22T09:17:15;16.83;;;7.78;;
70605;SDS011;58173;52.500;5.494;2024-03-22T09:19:41;10.43;;;4.13;;
70605;SDS011;58173;52.500;5.494;2024-03-22T09:22:08;19.08;;;7.38;;
70605;SDS011;58173;52.500;5.494;2024-03-22T09:24:34;10.68;;;4.35;;
70605;SDS011;58173;52.500;5.494;2024-03-22T09:27:00;20.58;;;6.95;;
70605;SDS011;58173;52.500;5.494;2024-03-22T09:29:29;14.98;;;5.00;;
70605;SDS011;58173;52.500;5.494;2024-03-22T09:31:55;12.05;;;4.38;;
70605;SDS011;58173;52.500;5.494;2024-03-22T09:34:22;22.00;;;7.05;;
70605;SDS011;58173;52.500;5.494;2024-03-22T09:36:48;16.63;;;6.60;;
70605;SDS011;58173;52.500;5.494;2024-03-22T09:39:14;17.73;;;6.78;;
70605;SDS011;58173;52.500;5.494;2024-03-22T09:44:31;23.33;;;6.28;;
70605;SDS011;58173;52.500;5.494;2024-03-22T09:46:58;12.10;;;4.35;;
70605;SDS011;58173;52.500;5.494;2024-03-22T09:49:26;17.48;;;6.32;;
70605;SDS011;58173;52.500;5.494;2024-03-22T09:51:53;17.38;;;6.07;;
70605;SDS011;58173;52.500;5.494;2024-03-22T09:54:22;11.40;;;3.63;;
70605;SDS011;58173;52.500;5.494;2024-03-22T09:56:49;19.58;;;6.15;;
70605;SDS011;58173;52.500;5.494;2024-03-22T09:59:16;16.23;;;5.75;;
70605;SDS011;58173;52.500;5.494;2024-03-22T10:01:42;15.32;;;5.22;;
70605;SDS011;58173;52.500;5.494;2024-03-22T10:04:09;12.63;;;4.63;;
70605;SDS011;58173;52.500;5.494;2024-03-22T10:06:35;15.15;;;5.82;;
70605;SDS011;58173;52.500;5.494;2024-03-22T10:09:01;14.63;;;6.38;;
70605;SDS011;58173;52.500;5.494;2024-03-22T10:11:29;15.63;;;5.25;;
70605;SDS011;58173;52.500;5.494;2024-03-22T10:13:56;13.93;;;4.60;;
70605;SDS011;58173;52.500;5.494;2024-03-22T10:16:22;16.85;;;6.47;;
70605;SDS011;58173;52.500;5.494;2024-03-22T10:18:48;16.08;;;5.80;;
70605;SDS011;58173;52.500;5.494;2024-03-22T10:21:18;15.88;;;7.05;;
70605;SDS011;58173;52.500;5.494;2024-03-22T10:23:44;13.65;;;4.78;;
70605;SDS011;58173;52.500;5.494;2024-03-22T10:26:12;14.13;;;5.25;;
70605;SDS011;58173;52.500;5.494;2024-03-22T10:28:45;8.52;;;3.28;;
70605;SDS011;58173;52.500;5.494;2024-03-22T10:31:12;9.82;;;3.78;;
70605;SDS011;58173;52.500;5.494;2024-03-22T10:33:40;16.38;;;4.95;;
70605;SDS011;58173;52.500;5.494;2024-03-22T10:36:07;16.38;;;4.57;;
70605;SDS011;58173;52.500;5.494;2024-03-22T10:38:33;14.90;;;4.53;;
70605;SDS011;58173;52.500;5.494;2024-03-22T10:41:01;13.80;;;5.88;;
70605;SDS011;58173;52.500;5.494;2024-03-22T10:43:30;14.32;;;5.18;;
70605;SDS011;58173;52.500;5.494;2024-03-22T10:46:01;11.82;;;4.47;;
70605;SDS011;58173;52.500;5.494;2024-03-22T10:48:29;14.90;;;5.40;;
70605;SDS011;58173;52.500;5.494;2024-03-22T10:50:59;15.02;;;5.35;;
70605;SDS011;58173;52.500;5.494;2024-03-22T10:53:27;9.50;;;3.65;;
70605;SDS011;58173;52.500;5.494;2024-03-22T10:55:54;15.90;;;4.95;;
70605;SDS011;58173;52.500;5.494;2024-03-22T10:58:25;12.98;;;5.22;;
70605;SDS011;58173;52.500;5.494;2024-03-22T11:00:51;8.65;;;3.75;;
70605;SDS011;58173;52.500;5.494;2024-03-22T11:03:20;12.77;;;5.28;;
70605;SDS011;58173;52.500;5.494;2024-03-22T11:05:57;8.55;;;3.15;;
70605;SDS011;58173;52.500;5.494;2024-03-22T11:08:28;13.68;;;4.50;;
70605;SDS011;58173;52.500;5.494;2024-03-22T11:10:54;13.30;;;4.55;;
70605;SDS011;58173;52.500;5.494;2024-03-22T11:13:22;9.40;;;3.63;;
70605;SDS011;58173;52.500;5.494;2024-03-22T11:15:51;8.88;;;3.97;;
70605;SDS011;58173;52.500;5.494;2024-03-22T11:18:18;9.93;;;3.33;;
70605;SDS011;58173;52.500;5.494;2024-03-22T11:20:44;10.13;;;4.03;;
70605;SDS011;58173;52.500;5.494;2024-03-22T11:23:11;11.90;;;3.70;;
70605;SDS011;58173;52.500;5.494;2024-03-22T11:25:38;8.25;;;3.72;;
70605;SDS011;58173;52.500;5.494;2024-03-22T11:28:04;10.70;;;3.97;;
70605;SDS011;58173;52.500;5.494;2024-03-22T11:30:31;12.60;;;5.13;;
70605;SDS011;58173;52.500;5.494;2024-03-22T11:33:00;13.05;;;4.85;;
70605;SDS011;58173;52.500;5.494;2024-03-22T11:35:27;10.82;;;3.67;;
70605;SDS011;58173;52.500;5.494;2024-03-22T11:37:53;9.82;;;4.18;;
70605;SDS011;58173;52.500;5.494;2024-03-22T11:40:21;12.48;;;5.10;;
70605;SDS011;58173;52.500;5.494;2024-03-22T11:42:49;10.02;;;4.03;;
70605;SDS011;58173;52.500;5.494;2024-03-22T11:45:16;10.02;;;3.80;;
70605;SDS011;58173;52.500;5.494;2024-03-22T11:47:43;12.38;;;5.45;;
70605;SDS011;58173;52.500;5.494;2024-03-22T11:50:11;11.38;;;4.55;;
70605;SDS011;58173;52.500;5.494;2024-03-22T11:52:40;14.75;;;6.53;;
70605;SDS011;58173;52.500;5.494;2024-03-22T11:55:06;20.23;;;7.45;;
70605;SDS011;58173;52.500;5.494;2024-03-22T11:57:32;14.90;;;6.60;;
70605;SDS011;58173;52.500;5.494;2024-03-22T11:59:59;14.30;;;5.68;;
70605;SDS011;58173;52.500;5.494;2024-03-22T12:02:26;17.20;;;6.30;;
70605;SDS011;58173;52.500;5.494;2024-03-22T12:04:52;12.80;;;5.15;;
70605;SDS011;58173;52.500;5.494;2024-03-22T12:07:19;14.25;;;5.43;;
70605;SDS011;58173;52.500;5.494;2024-03-22T12:09:45;16.02;;;6.60;;
70605;SDS011;58173;52.500;5.494;2024-03-22T12:12:11;19.88;;;8.60;;
70605;SDS011;58173;52.500;5.494;2024-03-22T12:14:38;15.05;;;5.50;;
70605;SDS011;58173;52.500;5.494;2024-03-22T12:17:05;13.73;;;5.47;;
70605;SDS011;58173;52.500;5.494;2024-03-22T12:19:32;13.77;;;5.30;;
70605;SDS011;58173;52.500;5.494;2024-03-22T12:21:58;17.55;;;7.22;;
70605;SDS011;58173;52.500;5.494;2024-03-22T12:24:24;11.73;;;4.45;;
70605;SDS011;58173;52.500;5.494;2024-03-22T12:26:50;18.75;;;6.55;;
70605;SDS011;58173;52.500;5.494;2024-03-22T12:29:17;20.02;;;6.05;;
70605;SDS011;58173;52.500;5.494;2024-03-22T12:31:43;15.15;;;5.07;;
70605;SDS011;58173;52.500;5.494;2024-03-22T12:34:10;18.33;;;6.15;;
70605;SDS011;58173;52.500;5.494;2024-03-22T12:36:36;18.35;;;6.40;;
70605;SDS011;58173;52.500;5.494;2024-03-22T12:39:02;16.15;;;6.22;;
70605;SDS011;58173;52.500;5.494;2024-03-22T12:41:29;13.68;;;5.28;;
70605;SDS011;58173;52.500;5.494;2024-03-22T12:43:56;18.95;;;7.30;;
70605;SDS011;58173;52.500;5.494;2024-03-22T12:46:22;14.23;;;4.57;;
70605;SDS011;58173;52.500;5.494;2024-03-22T12:48:49;14.45;;;5.82;;
70605;SDS011;58173;52.500;5.494;2024-03-22T12:51:15;19.40;;;6.90;;
70605;SDS011;58173;52.500;5.494;2024-03-22T12:53:42;17.98;;;6.15;;
70605;SDS011;58173;52.500;5.494;2024-03-22T12:56:08;18.77;;;7.00;;
70605;SDS011;58173;52.500;5.494;2024-03-22T12:58:34;11.52;;;4.43;;
70605;SDS011;58173;52.500;5.494;2024-03-22T13:01:01;15.35;;;5.68;;
70605;SDS011;58173;52.500;5.494;2024-03-22T13:03:27;18.05;;;5.13;;
70605;SDS011;58173;52.500;5.494;2024-03-22T13:05:55;17.05;;;5.57;;
70605;SDS011;58173;52.500;5.494;2024-03-22T13:08:21;11.95;;;3.78;;
70605;SDS011;58173;52.500;5.494;2024-03-22T13:10:47;20.92;;;6.95;;
70605;SDS011;58173;52.500;5.494;2024-03-22T13:13:14;15.02;;;5.75;;
70605;SDS011;58173;52.500;5.494;2024-03-22T13:15:42;11.05;;;3.58;;
70605;SDS011;58173;52.500;5.494;2024-03-22T13:18:08;18.05;;;5.75;;
70605;SDS011;58173;52.500;5.494;2024-03-22T13:20:35;16.92;;;6.50;;
70605;SDS011;58173;52.500;5.494;2024-03-22T13:23:01;15.32;;;4.20;;
70605;SDS011;58173;52.500;5.494;2024-03-22T13:25:28;15.82;;;4.60;;
70605;SDS011;58173;52.500;5.494;2024-03-22T13:27:54;17.77;;;6.35;;
70605;SDS011;58173;52.500;5.494;2024-03-22T13:30:20;18.33;;;5.40;;
70605;SDS011;58173;52.500;5.494;2024-03-22T13:32:47;11.18;;;4.28;;
70605;SDS011;58173;52.500;5.494;2024-03-22T13:35:13;12.52;;;3.55;;
70605;SDS011;58173;52.500;5.494;2024-03-22T13:37:42;13.63;;;4.05;;
70605;SDS011;58173;52.500;5.494;2024-03-22T13:40:09;13.40;;;3.75;;
70605;SDS011;58173;52.500;5.494;2024-03-22T13:42:36;12.38;;;3.97;;
70605;SDS011;58173;52.500;5.494;2024-03-22T13:45:02;9.98;;;3.25;;
70605;SDS011;58173;52.500;5.494;2024-03-22T13:47:28;9.25;;;3.05;;
70605;SDS011;58173;52.500;5.494;2024-03-22T13:49:55;11.75;;;3.55;;
70605;SDS011;58173;52.500;5.494;2024-03-22T13:52:21;14.48;;;3.08;;
70605;SDS011;58173;52.500;5.494;2024-03-22T13:54:48;11.25;;;2.55;;
70605;SDS011;58173;52.500;5.494;2024-03-22T13:57:15;14.27;;;3.95;;
70605;SDS011;58173;52.500;5.494;2024-03-22T13:59:41;10.88;;;2.97;;
70605;SDS011;58173;52.500;5.494;2024-03-22T14:02:08;10.05;;;2.42;;
70605;SDS011;58173;52.500;5.494;2024-03-22T14:04:34;9.93;;;2.22;;
70605;SDS011;58173;52.500;5.494;2024-03-22T14:07:00;8.95;;;2.00;;
70605;SDS011;58173;52.500;5.494;2024-03-22T14:09:33;15.77;;;3.20;;
70605;SDS011;58173;52.500;5.494;2024-03-22T14:12:00;12.98;;;3.78;;
70605;SDS011;58173;52.500;5.494;2024-03-22T14:14:26;8.98;;;2.78;;
70605;SDS011;58173;52.500;5.494;2024-03-22T14:16:52;6.93;;;2.28;;
70605;SDS011;58173;52.500;5.494;2024-03-22T14:19:19;8.60;;;2.58;;
70605;SDS011;58173;52.500;5.494;2024-03-22T14:21:45;12.77;;;3.00;;
70605;SDS011;58173;52.500;5.494;2024-03-22T14:24:12;10.00;;;3.08;;
70605;SDS011;58173;52.500;5.494;2024-03-22T14:26:38;11.88;;;3.33;;
70605;SDS011;58173;52.500;5.494;2024-03-22T14:29:11;11.90;;;3.45;;
70605;SDS011;58173;52.500;5.494;2024-03-22T14:31:38;8.95;;;2.88;;
70605;SDS011;58173;52.500;5.494;2024-03-22T14:34:05;11.00;;;3.25;;
70605;SDS011;58173;52.500;5.494;2024-03-22T14:36:32;10.48;;;2.35;;